createdAt,value
2018-06-07T00:00:14.504Z,6.90
2018-06-07T00:02:43.536Z,7.17
2018-06-07T00:05:11.794Z,6.40
2018-06-07T00:07:40.057Z,7.30
2018-06-07T00:10:09.085Z,6.93
2018-06-07T00:12:37.375Z,7.20
2018-06-07T00:15:05.690Z,7.10
2018-06-07T00:17:33.945Z,7.00
2018-06-07T00:20:02.195Z,6.77
2018-06-07T00:22:30.455Z,7.00
2018-06-07T00:24:58.711Z,7.03
2018-06-07T00:27:26.961Z,6.17
2018-06-07T00:29:55.231Z,6.53
2018-06-07T00:32:23.491Z,7.17
2018-06-07T00:34:51.783Z,6.93
2018-06-07T00:37:20.045Z,6.37
2018-06-07T00:39:48.290Z,6.57
2018-06-07T00:42:16.557Z,6.00
2018-06-07T00:44:44.812Z,6.37
2018-06-07T00:47:13.068Z,5.43
2018-06-07T00:49:42.244Z,6.00
2018-06-07T00:52:10.491Z,6.03
2018-06-07T00:54:38.793Z,5.73
2018-06-07T00:57:07.062Z,5.90
2018-06-07T00:59:35.305Z,5.77
2018-06-07T01:02:03.560Z,5.13
2018-06-07T01:04:31.856Z,6.03
2018-06-07T01:07:00.905Z,6.07
2018-06-07T01:09:29.927Z,5.90
2018-06-07T01:11:58.179Z,6.10
2018-06-07T01:14:27.412Z,6.37
2018-06-07T01:16:55.654Z,5.67
2018-06-07T01:19:24.697Z,6.53
2018-06-07T01:21:52.970Z,6.23
2018-06-07T01:24:21.234Z,6.27
2018-06-07T01:26:50.248Z,7.43
2018-06-07T01:29:18.510Z,6.93
2018-06-07T01:31:52.426Z,6.33
2018-06-07T01:34:20.701Z,6.77
2018-06-07T01:36:48.958Z,6.93
2018-06-07T01:39:17.251Z,7.10
2018-06-07T01:41:45.508Z,6.97
2018-06-07T01:44:13.773Z,6.80
2018-06-07T01:46:42.045Z,7.13
2018-06-07T01:49:10.286Z,7.33
2018-06-07T01:51:39.332Z,7.53
2018-06-07T01:54:07.612Z,7.20
2018-06-07T01:56:35.903Z,7.70
2018-06-07T01:59:04.196Z,7.43
2018-06-07T02:01:32.480Z,8.20
2018-06-07T02:04:01.490Z,7.53
2018-06-07T02:06:29.765Z,7.53
2018-06-07T02:08:58.053Z,8.07
2018-06-07T02:11:27.071Z,7.40
2018-06-07T02:13:55.318Z,7.10
2018-06-07T02:16:23.633Z,7.63
2018-06-07T02:18:51.973Z,8.33
2018-06-07T02:21:20.227Z,7.23
2018-06-07T02:23:49.233Z,7.13
2018-06-07T02:26:17.507Z,7.17
2018-06-07T02:28:45.755Z,7.30
2018-06-07T02:31:14.010Z,7.20
2018-06-07T02:33:42.287Z,7.63
2018-06-07T02:36:10.810Z,7.00
2018-06-07T02:38:39.802Z,7.13
2018-06-07T02:41:08.077Z,7.00
2018-06-07T02:43:36.357Z,7.60
2018-06-07T02:46:04.639Z,7.63
2018-06-07T02:48:32.884Z,7.20
2018-06-07T02:51:01.955Z,7.23
2018-06-07T02:53:30.494Z,7.20
2018-06-07T02:55:58.742Z,7.57
2018-06-07T02:58:27.758Z,7.43
2018-06-07T03:00:56.186Z,7.00
2018-06-07T03:03:24.404Z,7.17
2018-06-07T03:05:52.658Z,6.90
2018-06-07T03:08:21.682Z,6.73
2018-06-07T03:10:49.928Z,7.27
2018-06-07T03:13:18.973Z,6.97
2018-06-07T03:15:47.220Z,6.93
2018-06-07T03:18:15.738Z,7.30
2018-06-07T03:20:44.096Z,7.00
2018-06-07T03:23:12.308Z,6.97
2018-06-07T03:25:40.573Z,6.83
2018-06-07T03:28:08.815Z,6.70
2018-06-07T03:30:37.084Z,6.73
2018-06-07T03:33:05.352Z,6.73
2018-06-07T03:35:33.605Z,6.70
2018-06-07T03:38:02.638Z,6.50
2018-06-07T03:40:30.961Z,7.27
2018-06-07T03:43:00.111Z,6.73
2018-06-07T03:45:28.365Z,7.50
2018-06-07T03:47:56.602Z,6.90
2018-06-07T03:50:25.669Z,6.60
2018-06-07T03:52:53.924Z,6.60
2018-06-07T03:55:22.220Z,6.40
2018-06-07T03:57:50.853Z,6.83
2018-06-07T04:00:19.876Z,6.70
2018-06-07T04:02:48.393Z,7.37
2018-06-07T04:05:16.636Z,7.07
2018-06-07T04:07:44.889Z,6.87
2018-06-07T04:10:13.181Z,7.10
2018-06-07T04:12:41.421Z,6.80
2018-06-07T04:15:10.430Z,6.80
2018-06-07T04:17:38.988Z,7.50
2018-06-07T04:20:07.280Z,7.30
2018-06-07T04:22:36.309Z,7.00
2018-06-07T04:25:04.574Z,7.03
2018-06-07T04:27:32.821Z,7.00
2018-06-07T04:30:01.059Z,7.20
2018-06-07T04:32:29.326Z,7.23
2018-06-07T04:34:57.588Z,7.47
2018-06-07T04:37:25.843Z,6.80
2018-06-07T04:39:54.125Z,7.07
2018-06-07T04:42:22.383Z,6.97
2018-06-07T04:44:50.627Z,7.40
2018-06-07T04:47:19.666Z,6.90
2018-06-07T04:49:47.927Z,7.07
2018-06-07T04:52:16.188Z,6.90
2018-06-07T04:54:44.789Z,7.13
2018-06-07T04:57:13.824Z,7.07
2018-06-07T04:59:42.048Z,6.63
2018-06-07T05:02:10.394Z,6.93
2018-06-07T05:04:38.659Z,7.03
2018-06-07T05:07:06.912Z,6.70
2018-06-07T05:09:35.184Z,7.43
2018-06-07T05:12:03.428Z,7.07
2018-06-07T05:14:31.683Z,7.90
2018-06-07T05:17:00.709Z,7.13
2018-06-07T05:19:28.975Z,6.87
2018-06-07T05:21:57.216Z,6.63
2018-06-07T05:24:26.243Z,6.80
2018-06-07T05:26:54.516Z,7.23
2018-06-07T05:29:22.855Z,7.00
2018-06-07T05:31:51.150Z,6.23
2018-06-07T05:34:20.476Z,7.10
2018-06-07T05:36:48.732Z,6.97
2018-06-07T05:39:16.999Z,6.80
2018-06-07T05:41:46.010Z,6.70
2018-06-07T05:44:14.264Z,6.93
2018-06-07T05:46:43.344Z,5.90
2018-06-07T05:49:12.378Z,6.53
2018-06-07T05:51:40.664Z,6.37
2018-06-07T05:54:09.729Z,7.07
2018-06-07T05:56:37.972Z,6.53
2018-06-07T05:59:06.235Z,6.20
2018-06-07T06:01:34.484Z,6.40
2018-06-07T06:04:02.841Z,6.70
2018-06-07T06:06:31.067Z,6.77
2018-06-07T06:08:59.322Z,6.73
2018-06-07T06:11:27.604Z,6.53
2018-06-07T06:13:55.849Z,6.87
2018-06-07T06:16:24.264Z,6.43
2018-06-07T06:18:52.502Z,6.07
2018-06-07T06:21:20.832Z,6.70
2018-06-07T06:23:49.423Z,6.30
2018-06-07T06:26:18.433Z,6.50
2018-06-07T06:28:46.739Z,6.17
2018-06-07T06:31:15.024Z,6.13
2018-06-07T06:33:43.268Z,6.43
2018-06-07T06:36:11.523Z,6.70
2018-06-07T06:38:39.907Z,6.43
2018-06-07T06:41:08.170Z,6.20
2018-06-07T06:43:36.453Z,6.10
2018-06-07T06:46:04.703Z,6.10
2018-06-07T06:48:32.992Z,6.00
2018-06-07T06:51:01.240Z,6.17
2018-06-07T06:53:29.502Z,6.00
2018-06-07T06:55:57.812Z,5.10
2018-06-07T06:58:26.091Z,5.53
2018-06-07T07:00:54.346Z,5.50
2018-06-07T07:03:22.587Z,5.70
2018-06-07T07:05:50.940Z,5.40
2018-06-07T07:08:19.190Z,5.37
2018-06-07T07:10:48.216Z,5.10
2018-06-07T07:13:16.483Z,5.30
2018-06-07T07:15:44.740Z,5.53
2018-06-07T07:18:13.759Z,4.30
2018-06-07T07:20:42.058Z,4.60
2018-06-07T07:23:10.317Z,5.20
2018-06-07T07:25:38.552Z,5.40
2018-06-07T07:28:07.601Z,4.77
2018-06-07T07:30:35.939Z,5.20
2018-06-07T07:33:04.207Z,5.20
2018-06-07T07:35:33.226Z,4.63
2018-06-07T07:38:01.489Z,5.00
2018-06-07T07:40:29.752Z,4.73
2018-06-07T07:42:58.770Z,5.10
2018-06-07T07:45:27.080Z,4.63
2018-06-07T07:47:55.332Z,4.60
2018-06-07T07:50:23.710Z,4.97
2018-06-07T07:52:51.973Z,5.00
2018-06-07T07:55:20.279Z,4.80
2018-06-07T07:57:48.546Z,4.87
2018-06-07T08:00:16.799Z,5.03
2018-06-07T08:02:45.103Z,4.70
2018-06-07T08:05:13.386Z,4.83
2018-06-07T08:07:41.663Z,4.57
2018-06-07T08:10:10.123Z,4.90
2018-06-07T08:12:38.412Z,4.70
2018-06-07T08:15:06.681Z,4.37
2018-06-07T08:17:35.068Z,4.20
2018-06-07T08:20:03.331Z,3.90
2018-06-07T08:22:31.642Z,3.80
2018-06-07T08:25:00.681Z,4.17
2018-06-07T08:27:28.927Z,3.90
2018-06-07T08:29:57.270Z,3.90
2018-06-07T08:32:25.502Z,4.00
2018-06-07T08:34:53.754Z,4.20
2018-06-07T08:37:22.777Z,3.77
2018-06-07T08:39:51.824Z,4.20
2018-06-07T08:42:20.835Z,3.90
2018-06-07T08:44:49.082Z,3.60
2018-06-07T08:47:17.347Z,3.80
2018-06-07T08:49:45.602Z,3.70
2018-06-07T08:52:13.867Z,3.80
2018-06-07T08:54:42.131Z,3.87
2018-06-07T08:57:10.379Z,3.90
2018-06-07T08:59:38.663Z,3.53
2018-06-07T09:02:06.910Z,3.63
2018-06-07T09:04:35.928Z,3.40
2018-06-07T09:07:04.260Z,3.60
2018-06-07T09:09:32.441Z,3.47
2018-06-07T09:12:00.714Z,3.80
2018-06-07T09:14:28.982Z,3.67
2018-06-07T09:16:57.231Z,3.60
2018-06-07T09:19:26.264Z,3.20
2018-06-07T09:21:54.796Z,3.00
2018-06-07T09:24:23.049Z,3.50
2018-06-07T09:26:51.305Z,3.13
2018-06-07T09:29:20.355Z,3.10
2018-06-07T09:31:48.609Z,3.30
2018-06-07T09:34:16.870Z,3.13
2018-06-07T09:36:45.141Z,3.50
2018-06-07T09:39:14.275Z,3.60
2018-06-07T09:41:42.529Z,3.53
2018-06-07T09:44:10.980Z,3.47
2018-06-07T09:46:39.316Z,3.03
2018-06-07T09:49:07.561Z,3.27
2018-06-07T09:51:35.823Z,3.63
2018-06-07T09:54:04.142Z,3.50
2018-06-07T09:56:32.405Z,3.80
2018-06-07T09:59:00.658Z,3.87
2018-06-07T10:01:28.936Z,4.50
2018-06-07T10:03:57.183Z,4.20
2018-06-07T10:06:26.217Z,4.10
2018-06-07T10:08:54.458Z,4.37
2018-06-07T10:11:22.820Z,4.30
2018-06-07T10:13:51.835Z,4.80
2018-06-07T10:16:20.143Z,4.17
2018-06-07T10:18:48.602Z,3.73
2018-06-07T10:21:16.843Z,3.70
2018-06-07T10:23:45.908Z,3.80
2018-06-07T10:26:14.143Z,3.60
2018-06-07T10:28:42.416Z,3.40
2018-06-07T10:31:10.686Z,3.70
2018-06-07T10:33:38.967Z,4.07
2018-06-07T10:36:07.960Z,3.93
2018-06-07T10:38:36.215Z,4.17
2018-06-07T10:41:04.535Z,4.80
2018-06-07T10:43:32.782Z,4.17
2018-06-07T10:46:01.101Z,4.63
2018-06-07T10:48:29.363Z,3.73
2018-06-07T10:50:57.635Z,4.10
2018-06-07T10:53:26.143Z,3.93
2018-06-07T10:55:54.404Z,4.47
2018-06-07T10:58:22.658Z,4.53
2018-06-07T11:00:50.932Z,4.33
2018-06-07T11:03:19.205Z,4.67
2018-06-07T11:05:47.456Z,4.30
2018-06-07T11:08:15.732Z,5.00
2018-06-07T11:10:43.993Z,5.00
2018-06-07T11:13:13.071Z,4.90
2018-06-07T11:15:41.625Z,5.13
2018-06-07T11:18:09.873Z,5.17
2018-06-07T11:20:38.145Z,5.10
2018-06-07T11:23:06.392Z,5.13
2018-06-07T11:25:35.458Z,4.80
2018-06-07T11:28:03.764Z,5.23
2018-06-07T11:30:31.991Z,5.10
2018-06-07T11:33:00.249Z,5.20
2018-06-07T11:35:28.685Z,4.80
2018-06-07T11:37:57.707Z,5.40
2018-06-07T11:40:25.966Z,5.73
2018-06-07T11:42:54.235Z,5.33
2018-06-07T11:45:23.268Z,5.47
2018-06-07T11:47:51.536Z,5.67
2018-06-07T11:50:19.799Z,5.10
2018-06-07T11:52:48.770Z,5.13
2018-06-07T11:55:17.794Z,6.00
2018-06-07T11:57:46.057Z,5.60
2018-06-07T12:00:16.943Z,5.43
2018-06-07T12:02:45.210Z,5.70
2018-06-07T12:05:13.475Z,5.77
2018-06-07T12:07:41.747Z,5.63
2018-06-07T12:10:10.000Z,5.57
2018-06-07T12:12:38.399Z,6.60
2018-06-07T12:15:06.583Z,5.33
2018-06-07T12:17:34.844Z,5.73
2018-06-07T12:20:03.122Z,6.53
2018-06-07T12:22:31.366Z,5.50
2018-06-07T12:24:59.636Z,6.40
2018-06-07T12:27:27.926Z,5.77
2018-06-07T12:29:56.179Z,6.00
2018-06-07T12:32:24.428Z,6.10
2018-06-07T12:34:52.796Z,5.50
2018-06-07T12:37:21.031Z,5.40
2018-06-07T12:39:49.589Z,5.23
2018-06-07T12:42:17.814Z,5.73
2018-06-07T12:44:46.058Z,6.30
2018-06-07T12:47:14.317Z,6.10
2018-06-07T12:49:42.862Z,6.17
2018-06-07T12:52:11.149Z,6.47
2018-06-07T12:54:39.398Z,6.43
2018-06-07T12:57:07.867Z,6.40
2018-06-07T12:59:36.114Z,6.23
2018-06-07T13:02:04.379Z,6.17
2018-06-07T13:04:32.733Z,6.53
2018-06-07T13:07:01.756Z,6.30
2018-06-07T13:09:30.007Z,6.90
2018-06-07T13:11:59.046Z,6.03
2018-06-07T13:14:27.404Z,6.70
2018-06-07T13:16:55.671Z,5.90
2018-06-07T13:19:23.934Z,6.07
2018-06-07T13:21:52.266Z,6.20
2018-06-07T13:24:20.531Z,5.80
2018-06-07T13:26:49.448Z,6.50
2018-06-07T13:29:17.709Z,6.50
2018-06-07T13:31:45.995Z,6.10
2018-06-07T13:34:14.251Z,6.17
2018-06-07T13:36:42.504Z,5.80
2018-06-07T13:39:11.106Z,5.83
2018-06-07T13:41:39.365Z,6.40
2018-06-07T13:44:07.608Z,6.17
2018-06-07T13:46:36.676Z,6.33
2018-06-07T13:49:04.939Z,6.27
2018-06-07T13:51:33.180Z,5.93
2018-06-07T13:54:01.446Z,6.30
2018-06-07T13:56:30.464Z,6.40
2018-06-07T13:58:58.730Z,6.47
2018-06-07T14:01:27.004Z,6.43
2018-06-07T14:03:55.255Z,6.37
2018-06-07T14:06:23.565Z,6.57
2018-06-07T14:08:52.623Z,6.20
2018-06-07T14:11:20.883Z,6.93
2018-06-07T14:13:49.176Z,6.40
2018-06-07T14:16:18.353Z,6.90
2018-06-07T14:18:47.606Z,7.20
2018-06-07T14:21:15.850Z,6.40
2018-06-07T14:23:44.218Z,6.63
2018-06-07T14:26:12.502Z,6.60
2018-06-07T14:28:41.512Z,6.57
2018-06-07T14:31:09.879Z,7.00
2018-06-07T14:33:38.144Z,6.63
2018-06-07T14:36:06.785Z,7.13
2018-06-07T14:38:35.016Z,6.80
2018-06-07T14:41:03.383Z,6.77
2018-06-07T14:43:32.396Z,6.97
2018-06-07T14:46:00.726Z,6.63
2018-06-07T14:48:29.769Z,6.70
2018-06-07T14:50:58.060Z,6.67
2018-06-07T14:53:26.346Z,6.27
2018-06-07T14:55:54.639Z,6.20
2018-06-07T14:58:22.898Z,6.30
2018-06-07T15:00:51.956Z,6.00
2018-06-07T15:03:20.242Z,6.27
2018-06-07T15:05:48.501Z,6.43
2018-06-07T15:08:16.785Z,6.70
2018-06-07T15:10:45.030Z,6.50
2018-06-07T15:13:13.349Z,6.63
2018-06-07T15:15:41.626Z,6.50
2018-06-07T15:18:09.895Z,6.33
2018-06-07T15:20:38.205Z,6.17
2018-06-07T15:23:07.018Z,5.83
2018-06-07T15:25:36.030Z,6.03
2018-06-07T15:28:04.332Z,5.83
2018-06-07T15:30:32.636Z,6.07
2018-06-07T15:33:00.886Z,6.07
2018-06-07T15:35:29.169Z,5.93
2018-06-07T15:37:57.428Z,5.63
2018-06-07T15:40:25.700Z,5.37
2018-06-07T15:42:53.953Z,6.10
2018-06-07T15:45:22.214Z,6.00
2018-06-07T15:47:50.562Z,6.00
2018-06-07T15:50:18.814Z,6.33
2018-06-07T15:52:47.087Z,6.13
2018-06-07T15:55:15.587Z,6.00
2018-06-07T15:57:43.850Z,5.97
2018-06-07T16:00:12.123Z,6.13
2018-06-07T16:02:40.433Z,6.60
2018-06-07T16:05:09.444Z,5.67
2018-06-07T16:07:37.707Z,6.70
2018-06-07T16:10:06.978Z,5.73
2018-06-07T16:12:35.230Z,6.17
2018-06-07T16:15:03.489Z,6.23
2018-06-07T16:17:31.784Z,6.30
2018-06-07T16:20:00.036Z,6.10
2018-06-07T16:22:28.330Z,6.87
2018-06-07T16:24:56.592Z,6.47
2018-06-07T16:27:24.835Z,6.10
2018-06-07T16:29:53.195Z,6.27
2018-06-07T16:32:21.416Z,7.10
2018-06-07T16:34:49.969Z,6.40
2018-06-07T16:37:31.436Z,6.27
2018-06-07T16:40:13.570Z,6.90
2018-06-07T16:42:52.190Z,6.50
2018-06-07T16:45:23.010Z,6.27
2018-06-07T16:50:58.165Z,5.90
2018-06-07T16:53:26.420Z,6.53
2018-06-07T16:55:55.438Z,6.07
2018-06-07T16:58:24.476Z,6.67
2018-06-07T17:00:55.192Z,6.77
2018-06-07T17:03:47.652Z,6.73
2018-06-07T17:06:17.183Z,7.17
2018-06-07T17:08:46.311Z,6.43
2018-06-07T17:11:21.919Z,6.83
2018-06-07T17:16:35.236Z,6.23
2018-06-07T17:19:03.640Z,6.67
2018-06-07T17:21:32.028Z,6.40
2018-06-07T17:24:00.330Z,6.37
2018-06-07T17:26:28.627Z,6.13
2018-06-07T17:28:57.854Z,5.97
2018-06-07T17:31:26.352Z,6.43
2018-06-07T17:36:54.131Z,6.68
2018-06-07T17:39:22.410Z,6.00
2018-06-07T17:41:50.713Z,5.87
2018-06-07T17:44:19.383Z,6.00
2018-06-07T17:46:47.652Z,5.40
2018-06-07T17:49:15.984Z,6.00
2018-06-07T17:51:44.272Z,6.50
2018-06-07T17:54:12.541Z,5.80
2018-06-07T17:56:40.847Z,6.53
2018-06-07T17:59:09.098Z,6.20
2018-06-07T18:01:37.692Z,6.20
2018-06-07T18:04:08.083Z,6.13
2018-06-07T18:06:40.657Z,5.67
2018-06-07T18:09:09.380Z,5.90
2018-06-07T18:11:37.650Z,6.00
2018-06-07T18:14:05.921Z,5.63
2018-06-07T18:16:34.369Z,5.83
2018-06-07T18:19:02.544Z,6.00
2018-06-07T18:21:30.787Z,5.17
2018-06-07T18:23:59.324Z,5.10
2018-06-07T18:26:27.595Z,4.93
2018-06-07T18:28:55.860Z,5.63
2018-06-07T18:31:24.150Z,5.27
2018-06-07T18:33:52.426Z,5.53
2018-06-07T18:36:20.901Z,5.93
2018-06-07T18:38:50.159Z,5.77
2018-06-07T18:41:18.532Z,5.67
2018-06-07T18:43:46.795Z,5.93
2018-06-07T18:46:15.075Z,6.10
2018-06-07T18:48:43.202Z,6.50
2018-06-07T18:51:12.412Z,6.37
2018-06-07T18:53:48.604Z,6.93
2018-06-07T18:56:16.919Z,6.70
2018-06-07T18:58:45.199Z,6.77
2018-06-07T19:01:13.464Z,6.70
2018-06-07T19:03:41.784Z,7.43
2018-06-07T19:06:10.121Z,8.03
2018-06-07T19:08:38.380Z,8.80
2018-06-07T19:11:06.645Z,8.17
2018-06-07T19:13:35.685Z,8.30
2018-06-07T19:16:04.028Z,8.73
2018-06-07T19:18:32.272Z,8.77
2018-06-07T19:21:00.587Z,8.60
2018-06-07T19:23:30.556Z,8.27
2018-06-07T19:26:14.509Z,7.90
2018-06-07T19:28:42.787Z,7.63
2018-06-07T19:31:11.049Z,7.93
2018-06-07T19:33:45.036Z,8.23
2018-06-07T19:36:13.340Z,8.03
2018-06-07T19:38:41.618Z,8.03
2018-06-07T19:41:27.090Z,8.13
2018-06-07T19:43:56.130Z,7.83
2018-06-07T19:46:24.769Z,8.00
2018-06-07T19:48:53.030Z,8.53
2018-06-07T19:51:21.304Z,8.00
2018-06-07T19:53:49.579Z,8.37
2018-06-07T19:56:17.874Z,8.43
2018-06-07T19:58:46.135Z,8.70
2018-06-07T20:01:14.436Z,7.37
2018-06-07T20:03:43.448Z,7.80
2018-06-07T20:06:11.718Z,8.07
2018-06-07T20:08:40.809Z,7.97
2018-06-07T20:11:09.051Z,8.93
2018-06-07T20:13:37.654Z,7.63
2018-06-07T20:16:05.926Z,7.93
2018-06-07T20:18:37.181Z,7.93
2018-06-07T20:21:06.251Z,7.93
2018-06-07T20:23:34.523Z,7.80
2018-06-07T20:26:02.836Z,8.17
2018-06-07T20:28:32.859Z,7.70
2018-06-07T20:31:01.868Z,8.57
2018-06-07T20:33:30.228Z,9.07
2018-06-07T20:35:59.491Z,9.10
2018-06-07T20:38:27.776Z,9.40
2018-06-07T20:40:56.048Z,8.67
2018-06-07T20:43:24.322Z,8.27
2018-06-07T20:45:52.598Z,8.20
2018-06-07T20:48:22.052Z,8.90
2018-06-07T20:50:50.339Z,8.67
2018-06-07T20:53:18.603Z,8.67
2018-06-07T20:55:46.904Z,8.53
2018-06-07T20:58:16.043Z,8.70
2018-06-07T21:00:45.075Z,8.73
2018-06-07T21:03:13.696Z,9.40
2018-06-07T21:05:42.958Z,8.47
2018-06-07T21:08:11.245Z,8.20
2018-06-07T21:10:39.542Z,8.80
2018-06-07T21:13:07.888Z,9.03
2018-06-07T21:15:41.449Z,9.27
2018-06-07T21:18:10.590Z,8.73
2018-06-07T21:20:38.871Z,9.33
2018-06-07T21:23:07.143Z,8.77
2018-06-07T21:25:35.805Z,9.20
2018-06-07T21:28:04.081Z,8.57
2018-06-07T21:30:32.354Z,8.50
2018-06-07T21:33:00.623Z,8.13
2018-06-07T21:35:28.911Z,7.93
2018-06-07T21:37:57.164Z,8.03
2018-06-07T21:40:27.715Z,8.67
2018-06-07T21:42:55.959Z,8.83
2018-06-07T21:45:24.219Z,8.40
2018-06-07T21:47:53.264Z,9.47
2018-06-07T21:50:21.515Z,8.43
2018-06-07T21:52:49.788Z,8.70
2018-06-07T21:55:18.222Z,8.90
2018-06-07T21:57:46.511Z,8.70
2018-06-07T22:00:14.771Z,8.67
2018-06-07T22:02:43.066Z,7.40
2018-06-07T22:05:12.130Z,6.57
2018-06-07T22:07:40.430Z,6.70
2018-06-07T22:10:08.772Z,6.93
2018-06-07T22:12:37.028Z,7.23
2018-06-07T22:15:06.407Z,6.90
2018-06-07T22:17:34.660Z,7.17
2018-06-07T22:20:03.694Z,7.20
2018-06-07T22:22:32.718Z,6.77
2018-06-07T22:25:00.987Z,7.30
2018-06-07T22:27:29.424Z,6.47
2018-06-07T22:29:58.435Z,7.17
2018-06-07T22:32:27.417Z,7.00
2018-06-07T22:34:55.882Z,6.90
2018-06-07T22:37:24.118Z,6.97
2018-06-07T22:39:52.384Z,6.43
2018-06-07T22:42:20.655Z,6.90
2018-06-07T22:44:48.989Z,6.97
2018-06-07T22:47:17.241Z,7.10
2018-06-07T22:49:45.490Z,6.87
2018-06-07T22:52:13.759Z,6.80
2018-06-07T22:54:42.008Z,6.90
2018-06-07T22:57:10.346Z,7.93
2018-06-07T22:59:38.640Z,7.27
2018-06-07T23:02:06.902Z,8.10
2018-06-07T23:04:35.919Z,7.10
2018-06-07T23:07:04.911Z,6.80
2018-06-07T23:09:33.160Z,6.23
2018-06-07T23:12:02.194Z,6.77
2018-06-07T23:14:35.400Z,6.27
2018-06-07T23:17:03.643Z,6.13
2018-06-07T23:19:31.891Z,6.53
2018-06-07T23:22:00.978Z,6.37
2018-06-07T23:24:29.222Z,5.97
2018-06-07T23:26:57.547Z,6.37
2018-06-07T23:29:25.824Z,6.43
2018-06-07T23:31:54.078Z,7.30
2018-06-07T23:34:23.103Z,7.77
2018-06-07T23:36:51.369Z,8.20
2018-06-07T23:39:19.633Z,8.20
2018-06-07T23:41:48.651Z,8.40
2018-06-07T23:44:17.011Z,8.90
2018-06-07T23:46:45.283Z,10.27
2018-06-07T23:49:13.548Z,9.77
2018-06-07T23:51:42.583Z,8.97
2018-06-07T23:54:10.843Z,8.70
2018-06-07T23:56:39.111Z,7.83
2018-06-07T23:59:07.704Z,8.53
